Time;durP1;ratioP1;P1;durP2;ratioP2;P2;SDS_P1;SDS_P2;PMS_P1;PMS_P2;Temp;Humidity;BMP_temperature;BMP_pressure;BME280_temperature;BME280_humidity;BME280_pressure;Samples;Min_cycle;Max_cycle;Signal;HPM_P1;HPM_P2
2022/07/24 05:13:51;;;;;;;;;;;;;;;;;;;;;
2022/07/24 05:35:27;;;;;;;;;;;;;;;;;;;;;
2022/07/24 05:49:26;;;;;;;16.67;10.75;;;16.50;99.90;;;;;;6038691;23;20019;-88
2022/07/24 06:18:36;;;;;;;17.83;11.90;;;17.20;99.90;;;;;;6323637;22;20023;-88
2022/07/24 07:00:20;;;;;;;13.27;9.23;;;18.60;99.90;;;;;;6340375;22;20023;-88
2022/07/24 07:03:46;;;;;;;11.43;7.95;;;18.80;99.90;;;;;;6257201;22;20016;-87
2022/07/24 07:06:12;;;;;;;12.73;8.50;;;18.90;99.90;;;;;;6135560;23;20067;-86
2022/07/24 07:08:40;;;;;;;10.05;7.45;;;19.10;99.90;;;;;;6159892;23;20017;-87
2022/07/24 07:11:06;;;;;;;12.68;8.27;;;19.20;99.90;;;;;;6135749;23;20020;-84
2022/07/24 07:13:34;;;;;;;11.70;8.10;;;19.30;99.90;;;;;;6184226;23;20013;-85
2022/07/24 07:16:05;;;;;;;14.40;8.55;;;19.50;99.90;;;;;;6220909;22;20015;-86
2022/07/24 07:18:49;;;;;;;;;;;;;;;;;;;;;
2022/07/24 07:21:36;;;;;;;12.18;6.80;;;19.70;99.90;;;;;;6309727;22;20041;-87
2022/07/24 07:24:15;;;;;;;10.93;6.38;;;19.80;99.90;;;;;;6309664;22;20387;-87
2022/07/24 07:27:31;;;;;;;10.68;6.88;;;19.90;99.90;;;;;;6256034;22;20022;-87
2022/07/24 07:30:17;;;;;;;10.90;6.93;;;20.10;99.90;;;;;;6255098;22;20310;-85
2022/07/24 07:32:58;;;;;;;10.48;7.32;;;20.20;99.90;;;;;;6305443;22;20069;-86
2022/07/24 07:36:11;;;;;;;10.75;6.55;;;20.30;99.90;;;;;;6282159;22;20086;-86
2022/07/24 07:38:38;;;;;;;8.95;6.45;;;20.40;99.90;;;;;;6253486;22;20318;-87
2022/07/24 07:41:09;;;;;;;11.45;7.55;;;20.50;99.90;;;;;;6300999;22;20015;-87
2022/07/24 07:44:13;;;;;;;11.95;7.10;;;20.60;99.90;;;;;;6313986;22;20093;-85
2022/07/24 07:46:52;;;;;;;10.93;7.68;;;20.80;99.90;;;;;;6189869;23;20024;-86
2022/07/24 07:49:18;;;;;;;12.23;6.97;;;20.90;99.90;;;;;;6328159;22;20007;-83
2022/07/24 07:51:47;;;;;;;11.20;7.93;;;21.00;99.90;;;;;;6340499;22;20009;-86
2022/07/24 07:54:34;;;;;;;11.25;7.13;;;21.10;99.90;;;;;;6340481;22;20340;-87
2022/07/24 07:57:00;;;;;;;12.02;7.30;;;21.20;99.90;;;;;;6340247;22;20017;-87
2022/07/24 07:59:32;;;;;;;10.20;6.30;;;21.20;99.90;;;;;;6312436;22;20487;-87
2022/07/24 08:01:58;;;;;;;10.32;6.93;;;21.30;99.90;;;;;;6286234;22;20022;-83
2022/07/24 08:04:26;;;;;;;11.07;6.35;;;21.30;99.90;;;;;;6287223;22;20034;-86
2022/07/24 08:06:55;;;;;;;10.45;6.25;;;21.30;99.90;;;;;;6340446;22;20010;-87
2022/07/24 08:09:24;;;;;;;8.52;6.43;;;21.40;99.90;;;;;;6312688;22;20038;-87
2022/07/24 08:12:02;;;;;;;9.77;5.80;;;21.40;99.90;;;;;;6340609;22;20018;-86
2022/07/24 08:15:14;;;;;;;10.02;6.13;;;21.40;99.90;;;;;;6339804;22;20011;-87
2022/07/24 08:17:40;;;;;;;8.63;6.10;;;21.30;99.90;;;;;;6286555;22;20015;-88
2022/07/24 08:20:27;;;;;;;10.10;5.50;;;21.30;99.90;;;;;;6339987;22;20007;-84
2022/07/24 08:23:01;;;;;;;7.32;5.40;;;21.30;99.90;;;;;;6331055;22;20068;-86
2022/07/24 08:25:52;;;;;;;8.02;5.50;;;21.40;99.90;;;;;;6286305;22;20064;-86
2022/07/24 08:28:48;;;;;;;9.23;5.85;;;21.60;99.90;;;;;;6311270;22;20087;-86
2022/07/24 08:31:17;;;;;;;9.70;5.22;;;21.70;99.90;;;;;;6279363;22;20019;-87
2022/07/24 08:33:51;;;;;;;9.23;5.00;;;21.90;99.90;;;;;;6254194;22;20012;-86
2022/07/24 08:36:22;;;;;;;5.60;4.30;;;21.90;99.90;;;;;;6280030;22;20443;-88
2022/07/24 08:38:48;;;;;;;5.57;3.92;;;21.90;99.90;;;;;;6280014;22;20351;-85
2022/07/24 08:41:43;;;;;;;9.15;3.90;;;21.90;99.90;;;;;;6305423;22;20030;-86
2022/07/24 08:44:09;;;;;;;6.30;3.72;;;22.00;99.90;;;;;;6183418;23;20049;-84
2022/07/24 08:46:41;;;;;;;6.85;3.70;;;22.00;99.90;;;;;;6183861;23;20443;-85
2022/07/24 08:49:11;;;;;;;6.75;3.55;;;22.20;99.90;;;;;;6266681;22;20012;-86
2022/07/24 09:01:20;;;;;;;5.70;3.40;;;22.40;99.90;;;;;;6291938;22;20033;-85
2022/07/24 09:04:26;;;;;;;6.13;3.33;;;22.60;99.90;;;;;;6290162;22;20071;-86
2022/07/24 09:06:59;;;;;;;5.53;3.20;;;22.70;99.90;;;;;;6312738;22;20019;-83
2022/07/24 09:12:18;;;;;;;4.60;3.22;;;23.00;99.90;;;;;;6313976;22;20066;-85
2022/07/24 09:14:46;;;;;;;5.75;3.10;;;23.10;99.90;;;;;;6288132;22;20011;-86
2022/07/24 09:17:46;;;;;;;5.55;3.00;;;23.20;99.90;;;;;;6342180;22;20006;-83
2022/07/24 09:23:05;;;;;;;5.57;3.47;;;23.10;99.90;;;;;;6314549;22;20022;-85
2022/07/24 09:29:53;;;;;;;5.18;3.25;;;23.30;99.90;;;;;;6191659;23;20013;-86
2022/07/24 09:32:25;;;;;;;5.72;3.17;;;23.30;99.90;;;;;;6264895;22;20030;-86
2022/07/24 09:34:52;;;;;;;7.95;3.40;;;23.40;99.90;;;;;;6257505;22;20014;-86
2022/07/24 09:38:12;;;;;;;;;;;;;;;;;;;;;
2022/07/24 09:43:41;;;;;;;6.50;2.53;;;23.60;99.90;;;;;;6278503;22;20070;-86
2022/07/24 09:46:11;;;;;;;4.53;3.10;;;23.80;99.90;;;;;;6224644;22;20070;-88
2022/07/24 09:49:00;;;;;;;4.90;2.25;;;24.10;99.90;;;;;;6254749;22;20031;-86
2022/07/24 09:51:40;;;;;;;6.03;2.50;;;24.30;99.90;;;;;;6269923;22;20015;-85
2022/07/24 09:54:07;;;;;;;5.38;2.42;;;24.40;99.90;;;;;;6234264;22;20015;-86
2022/07/24 09:56:35;;;;;;;4.05;2.80;;;24.50;99.90;;;;;;6260107;22;20015;-85
2022/07/24 09:59:07;;;;;;;10.98;3.00;;;24.70;99.90;;;;;;6312175;22;20101;-87
2022/07/24 10:01:34;;;;;;;5.80;2.72;;;24.60;99.90;;;;;;6285218;22;20015;-86
2022/07/24 10:04:02;;;;;;;3.85;2.70;;;24.50;99.90;;;;;;6311143;22;20501;-88
2022/07/24 10:06:29;;;;;;;5.43;2.80;;;24.20;99.90;;;;;;6284772;22;20099;-90
2022/07/24 10:08:56;;;;;;;5.03;2.83;;;24.10;99.90;;;;;;6260549;22;20086;-85
2022/07/24 10:11:22;;;;;;;4.75;2.55;;;24.00;99.90;;;;;;6284778;22;20053;-86
2022/07/24 10:13:48;;;;;;;5.70;2.33;;;24.00;99.90;;;;;;6311305;22;20022;-82
2022/07/24 10:16:14;;;;;;;3.92;2.70;;;24.10;99.90;;;;;;6284381;22;20023;-86
2022/07/24 10:18:58;;;;;;;5.25;2.50;;;24.20;99.90;;;;;;6284516;22;20319;-87
2022/07/24 10:21:31;;;;;;;5.72;2.55;;;24.50;99.90;;;;;;6257566;22;20022;-90
2022/07/24 10:24:11;;;;;;;3.55;2.65;;;24.60;99.90;;;;;;6283043;22;20440;-86
2022/07/24 10:26:56;;;;;;;4.85;2.50;;;24.80;99.90;;;;;;6282587;22;20018;-87
2022/07/24 10:29:25;;;;;;;5.90;2.40;;;25.00;99.90;;;;;;6283848;22;20007;-88
2022/07/24 10:31:54;;;;;;;4.25;2.30;;;25.10;99.90;;;;;;6310071;22;20092;-84
2022/07/24 10:34:39;;;;;;;6.03;2.80;;;25.00;99.90;;;;;;6257050;22;20023;-87
2022/07/24 10:37:27;;;;;;;5.47;2.33;;;24.90;99.90;;;;;;6310581;22;20459;-87
2022/07/24 10:40:18;;;;;;;4.13;2.60;;;24.80;99.90;;;;;;6311290;22;20007;-87
2022/07/24 10:43:08;;;;;;;3.75;2.60;;;24.80;99.90;;;;;;6283186;22;20080;-89
2022/07/24 10:45:45;;;;;;;7.95;2.70;;;24.90;99.90;;;;;;6283985;22;20007;-82
2022/07/24 10:48:20;;;;;;;4.18;2.78;;;25.00;99.90;;;;;;6311644;22;20011;-84
2022/07/24 10:51:00;;;;;;;4.65;2.63;;;25.20;99.90;;;;;;6283684;22;20083;-85
2022/07/24 10:53:31;;;;;;;3.83;2.10;;;25.40;99.90;;;;;;6283050;22;20068;-87
2022/07/24 10:56:16;;;;;;;5.00;2.28;;;25.50;99.90;;;;;;6257908;22;20017;-84
2022/07/24 10:58:55;;;;;;;;;;;25.70;99.90;;;;;;6311251;22;20033;-90
2022/07/24 11:01:36;;;;;;;5.03;2.50;;;25.80;98.60;;;;;;6310141;22;20217;-76
2022/07/24 11:04:24;;;;;;;5.10;2.47;;;25.90;98.60;;;;;;6283839;22;20043;-83
2022/07/24 11:06:53;;;;;;;4.45;2.47;;;26.00;99.90;;;;;;6310106;22;20033;-86
2022/07/24 11:09:29;;;;;;;3.55;2.22;;;26.20;99.80;;;;;;6283135;22;20025;-92
2022/07/24 11:11:55;;;;;;;4.00;2.60;;;26.30;99.30;;;;;;6227022;22;20018;-87
2022/07/24 11:14:52;;;;;;;3.15;2.17;;;26.30;98.90;;;;;;6252715;22;20042;-90
2022/07/24 11:17:45;;;;;;;4.00;2.30;;;26.30;97.10;;;;;;6227912;22;20100;-88
2022/07/24 11:20:34;;;;;;;4.68;2.20;;;26.20;96.20;;;;;;6251906;22;20483;-89
2022/07/24 11:23:20;;;;;;;4.50;2.22;;;26.20;96.30;;;;;;6225944;22;20023;-88
2022/07/24 11:25:45;;;;;;;4.57;2.70;;;26.30;96.80;;;;;;6278085;22;20011;-85
2022/07/24 11:28:12;;;;;;;4.43;2.55;;;26.50;95.80;;;;;;6278861;22;20015;-84
2022/07/24 11:30:43;;;;;;;4.57;2.30;;;26.60;96.20;;;;;;6226253;22;20012;-88
2022/07/24 11:33:19;;;;;;;3.60;2.20;;;26.60;94.60;;;;;;6251743;22;20022;-89
2022/07/24 11:35:45;;;;;;;4.88;2.42;;;26.70;95.20;;;;;;6252093;22;20022;-87
2022/07/24 11:38:11;;;;;;;3.53;2.30;;;26.70;95.40;;;;;;6252385;22;20051;-87
2022/07/24 11:40:36;;;;;;;3.92;2.25;;;26.70;94.90;;;;;;6251638;22;20015;-85
2022/07/24 11:43:05;;;;;;;3.85;2.20;;;26.70;94.30;;;;;;6278839;22;20022;-88
2022/07/24 11:45:31;;;;;;;5.40;2.40;;;26.80;95.40;;;;;;6279340;22;20367;-87
2022/07/24 11:47:57;;;;;;;3.67;2.20;;;26.70;94.20;;;;;;6251644;22;20018;-88
2022/07/24 11:50:25;;;;;;;4.22;2.17;;;26.50;93.60;;;;;;6279021;22;20504;-83
2022/07/24 11:52:51;;;;;;;3.35;2.20;;;26.50;94.20;;;;;;6251973;22;20012;-87
2022/07/24 11:55:24;;;;;;;4.53;2.60;;;26.70;94.80;;;;;;6252182;22;20027;-88
2022/07/24 11:57:53;;;;;;;4.45;2.22;;;26.80;94.80;;;;;;6252251;22;20054;-76
2022/07/24 12:00:23;;;;;;;5.43;2.88;;;26.90;94.50;;;;;;6252471;22;20015;-90
2022/07/24 12:02:52;;;;;;;3.35;2.30;;;26.80;94.00;;;;;;6227491;22;20337;-86
2022/07/24 12:05:28;;;;;;;4.78;2.38;;;26.70;92.00;;;;;;6226023;22;20023;-86
2022/07/24 12:07:59;;;;;;;4.05;2.10;;;26.70;91.10;;;;;;6251145;22;20012;-84
2022/07/24 12:10:26;;;;;;;5.13;2.30;;;26.80;92.40;;;;;;6251568;22;20069;-86
2022/07/24 12:12:54;;;;;;;4.70;2.40;;;26.80;90.80;;;;;;6256296;22;20012;-89
2022/07/24 12:15:21;;;;;;;4.03;2.20;;;26.90;90.30;;;;;;6289567;22;20341;-86
2022/07/24 12:17:56;;;;;;;3.80;2.20;;;26.80;86.50;;;;;;6261668;22;20015;-87
2022/07/24 12:20:25;;;;;;;4.72;2.33;;;26.90;88.50;;;;;;6287778;22;20000;-86
2022/07/24 12:22:52;;;;;;;3.53;2.28;;;27.00;89.90;;;;;;6245766;22;20022;-87
2022/07/24 12:25:18;;;;;;;3.47;2.25;;;27.10;89.20;;;;;;6274909;22;20015;-87
2022/07/24 12:27:47;;;;;;;3.92;2.35;;;27.20;87.70;;;;;;6272584;22;20052;-84
2022/07/24 12:30:27;;;;;;;4.90;2.72;;;27.20;87.50;;;;;;6266175;22;20019;-89
2022/07/24 12:33:18;;;;;;;4.22;2.53;;;27.30;89.10;;;;;;6230161;22;20008;-86
2022/07/24 12:35:56;;;;;;;7.82;2.45;;;27.50;90.50;;;;;;6242356;22;20012;-88
2022/07/24 12:38:32;;;;;;;3.40;2.20;;;27.60;86.30;;;;;;6254065;22;20047;-88
2022/07/24 12:41:09;;;;;;;5.60;2.35;;;27.40;86.60;;;;;;6253625;22;20338;-87
2022/07/24 12:43:57;;;;;;;5.82;2.58;;;27.40;83.80;;;;;;6227578;22;20015;-87
2022/07/24 12:46:36;;;;;;;3.60;2.45;;;27.50;85.50;;;;;;6252695;22;20019;-88
2022/07/24 12:49:03;;;;;;;5.70;2.28;;;27.50;82.20;;;;;;6280205;22;20010;-87
2022/07/24 12:51:50;;;;;;;4.20;2.28;;;27.50;81.80;;;;;;6226589;22;20065;-86
2022/07/24 12:54:18;;;;;;;3.33;2.20;;;27.40;79.80;;;;;;6250952;22;20047;-86
2022/07/24 12:56:45;;;;;;;2.90;2.10;;;27.40;82.30;;;;;;6226728;22;20016;-85
2022/07/24 12:59:21;;;;;;;3.58;2.22;;;27.50;81.70;;;;;;6226617;22;20022;-86
2022/07/24 13:02:00;;;;;;;;;;;;;;;;;;;;;
2022/07/24 13:04:42;;;;;;;4.78;2.38;;;27.70;76.20;;;;;;6251172;22;20098;-89
2022/07/24 13:07:08;;;;;;;3.58;2.30;;;27.80;76.90;;;;;;6226725;22;20015;-87
2022/07/24 13:09:35;;;;;;;3.40;2.35;;;27.90;76.70;;;;;;6251975;22;20082;-88
2022/07/24 13:12:01;;;;;;;5.38;2.50;;;27.90;76.20;;;;;;6252564;22;20051;-90
2022/07/24 13:14:30;;;;;;;4.45;2.63;;;27.80;77.50;;;;;;6253087;22;20008;-90
2022/07/24 13:17:03;;;;;;;5.90;2.30;;;27.70;78.90;;;;;;6252578;22;20437;-89
2022/07/24 13:19:28;;;;;;;4.00;2.47;;;27.80;76.80;;;;;;6254822;22;20018;-90
2022/07/24 13:22:20;;;;;;;6.75;2.60;;;27.80;77.90;;;;;;6231486;22;20008;-90
2022/07/24 13:24:48;;;;;;;6.75;2.50;;;27.90;78.60;;;;;;6257047;22;20019;-91
2022/07/24 13:27:32;;;;;;;5.18;2.53;;;27.90;78.40;;;;;;6256439;22;20027;-87
2022/07/24 13:30:10;;;;;;;5.75;2.60;;;27.70;78.40;;;;;;6253281;22;20082;-81
2022/07/24 13:32:36;;;;;;;4.75;2.53;;;27.50;78.80;;;;;;6279313;22;20007;-88
2022/07/24 13:35:02;;;;;;;5.20;2.47;;;27.60;80.90;;;;;;6228292;22;20073;-91
2022/07/24 13:37:27;;;;;;;7.20;2.47;;;27.80;82.30;;;;;;6253264;22;20019;-89
2022/07/24 13:39:53;;;;;;;3.25;2.20;;;28.00;83.40;;;;;;6281446;22;20015;-88
2022/07/24 13:42:19;;;;;;;3.72;2.30;;;28.10;81.50;;;;;;6253760;22;20065;-91
2022/07/24 13:44:44;;;;;;;5.05;2.70;;;28.20;80.90;;;;;;6256012;22;20354;-89
2022/07/24 13:47:10;;;;;;;4.40;2.60;;;28.20;79.40;;;;;;6254345;22;20008;-89
2022/07/24 13:49:36;;;;;;;5.07;3.20;;;28.00;80.20;;;;;;6230083;22;20027;-90
2022/07/24 13:52:01;;;;;;;5.45;2.50;;;28.00;81.60;;;;;;6282217;22;20079;-92
2022/07/24 13:54:27;;;;;;;3.47;2.30;;;28.20;81.90;;;;;;6282522;22;20016;-90
2022/07/24 13:56:53;;;;;;;3.97;2.40;;;28.20;79.00;;;;;;6231610;22;20460;-91
2022/07/24 13:59:19;;;;;;;4.57;2.15;;;28.20;81.30;;;;;;6254912;22;20037;-91
2022/07/24 14:01:44;;;;;;;4.05;2.42;;;28.20;81.10;;;;;;6254940;22;20369;-86
2022/07/24 14:04:10;;;;;;;6.47;2.40;;;28.20;78.50;;;;;;6230535;22;20059;-91
2022/07/24 14:06:36;;;;;;;5.10;2.40;;;28.20;79.10;;;;;;6254923;22;20015;-91
2022/07/24 14:09:05;;;;;;;3.63;2.30;;;28.20;78.70;;;;;;6228203;22;20016;-88
2022/07/24 14:11:33;;;;;;;3.55;2.15;;;28.30;79.30;;;;;;6254545;22;20012;-90
2022/07/24 14:13:58;;;;;;;4.40;2.53;;;28.30;77.40;;;;;;6229737;22;20016;-87
2022/07/24 14:16:24;;;;;;;3.88;2.25;;;28.30;77.70;;;;;;6283337;22;20015;-88
2022/07/24 14:18:50;;;;;;;4.32;2.58;;;28.20;77.90;;;;;;6256617;22;20035;-88
2022/07/24 14:21:15;;;;;;;4.68;2.40;;;28.20;78.80;;;;;;6282647;22;20102;-89
2022/07/24 14:23:41;;;;;;;3.78;2.38;;;28.30;79.60;;;;;;6284884;22;20019;-87
2022/07/24 14:26:07;;;;;;;4.18;2.28;;;28.40;79.70;;;;;;6256770;22;20022;-86
2022/07/24 14:28:33;;;;;;;3.55;2.33;;;28.60;80.00;;;;;;6260192;22;20012;-87
2022/07/24 14:30:59;;;;;;;5.90;2.35;;;28.60;77.90;;;;;;6261072;22;20388;-88
2022/07/24 14:33:24;;;;;;;5.03;2.40;;;28.50;77.50;;;;;;6265007;22;20019;-87
2022/07/24 14:35:50;;;;;;;5.53;2.22;;;28.50;77.30;;;;;;6263105;22;20015;-88
2022/07/24 14:38:16;;;;;;;3.95;2.30;;;28.30;77.70;;;;;;6288770;22;20011;-89
2022/07/24 14:40:42;;;;;;;5.32;2.30;;;28.30;78.30;;;;;;6262986;22;20045;-89
2022/07/24 14:43:08;;;;;;;3.40;1.98;;;28.40;79.00;;;;;;6290731;22;20027;-88
2022/07/24 14:45:33;;;;;;;3.90;2.38;;;28.40;79.90;;;;;;6287788;22;20011;-86
2022/07/24 14:47:59;;;;;;;4.53;2.35;;;28.30;78.60;;;;;;6265632;22;20012;-88
2022/07/24 14:50:25;;;;;;;4.35;2.67;;;28.40;78.80;;;;;;6237045;22;20050;-89
2022/07/24 14:52:50;;;;;;;5.82;2.50;;;28.40;79.20;;;;;;6263178;22;20015;-90
2022/07/24 14:55:16;;;;;;;6.70;3.70;;;28.40;78.90;;;;;;6261614;22;20047;-88
2022/07/24 14:57:42;;;;;;;5.20;2.67;;;28.40;80.20;;;;;;6259642;22;20037;-85
2022/07/24 15:00:09;;;;;;;4.47;2.47;;;28.40;78.00;;;;;;6282536;22;20375;-90
2022/07/24 15:02:34;;;;;;;4.10;2.40;;;28.30;77.10;;;;;;6254759;22;20007;-90
2022/07/24 15:05:06;;;;;;;3.25;2.25;;;28.30;78.10;;;;;;6228846;22;20023;-87
2022/07/24 15:07:32;;;;;;;5.13;2.47;;;28.40;78.50;;;;;;6228646;22;20065;-91
2022/07/24 15:09:58;;;;;;;3.53;2.30;;;28.50;79.80;;;;;;6252942;22;20095;-89
2022/07/24 15:12:33;;;;;;;5.32;2.17;;;28.60;79.00;;;;;;6280670;22;20035;-89
2022/07/24 15:14:58;;;;;;;;;;;28.50;77.90;;;;;;6229028;22;20018;-89
2022/07/24 15:17:24;;;;;;;3.08;2.30;;;28.50;79.30;;;;;;6252907;22;19911;-89
2022/07/24 15:19:50;;;;;;;4.05;2.30;;;28.60;78.80;;;;;;6279874;22;20014;-84
2022/07/24 15:22:15;;;;;;;8.18;5.13;;;28.60;78.40;;;;;;6252115;22;20082;-86
2022/07/24 15:24:41;;;;;;;4.15;2.38;;;28.50;78.00;;;;;;6252386;22;20012;-89
2022/07/24 15:27:07;;;;;;;4.72;2.20;;;28.40;78.10;;;;;;6254018;22;20069;-87
2022/07/24 15:29:32;;;;;;;4.65;2.17;;;28.40;79.10;;;;;;6280590;22;20015;-87
2022/07/24 15:31:58;;;;;;;4.80;2.60;;;28.40;79.50;;;;;;6228323;22;20019;-85
2022/07/24 15:34:27;;;;;;;3.97;2.38;;;28.50;79.80;;;;;;6280625;22;20341;-88
2022/07/24 15:36:53;;;;;;;3.60;1.83;;;28.50;79.70;;;;;;6230185;22;20069;-91
2022/07/24 15:39:22;;;;;;;3.20;1.85;;;28.50;80.60;;;;;;6228622;22;20011;-91
2022/07/24 15:41:48;;;;;;;3.90;2.08;;;28.60;80.50;;;;;;6254914;22;20480;-91
2022/07/24 15:44:13;;;;;;;4.93;2.20;;;28.50;80.10;;;;;;6229576;22;20058;-90
2022/07/24 15:46:39;;;;;;;3.42;2.00;;;28.50;81.10;;;;;;6228635;22;20014;-87
2022/07/24 15:49:08;;;;;;;3.85;1.88;;;28.50;80.80;;;;;;6254231;22;20050;-84
2022/07/24 15:51:34;;;;;;;4.80;2.00;;;28.50;81.10;;;;;;6252923;22;20055;-88
2022/07/24 15:54:01;;;;;;;3.88;1.77;;;28.30;81.90;;;;;;6253479;22;20012;-87
2022/07/24 15:56:27;;;;;;;3.70;1.90;;;28.30;82.80;;;;;;6280262;22;20008;-83
2022/07/24 15:58:57;;;;;;;2.80;1.95;;;28.30;83.30;;;;;;6254083;22;20023;-83
2022/07/24 16:01:22;;;;;;;3.25;2.00;;;28.30;84.00;;;;;;6280458;22;20031;-87
2022/07/24 16:03:48;;;;;;;2.92;1.90;;;28.20;84.30;;;;;;6252122;22;20016;-86
2022/07/24 16:06:14;;;;;;;5.38;1.90;;;28.10;85.40;;;;;;6279296;22;20008;-86
2022/07/24 16:08:39;;;;;;;8.35;2.80;;;28.10;86.40;;;;;;6251904;22;20091;-88
2022/07/24 16:11:05;;;;;;;3.70;2.40;;;27.90;87.00;;;;;;6251892;22;20019;-85
2022/07/24 16:13:30;;;;;;;3.10;2.08;;;27.90;88.60;;;;;;6253280;22;20015;-91
2022/07/24 16:15:56;;;;;;;3.88;1.98;;;27.90;89.80;;;;;;6253531;22;20373;-87
2022/07/24 16:18:22;;;;;;;3.00;2.08;;;28.00;89.40;;;;;;6227611;22;20022;-84
2022/07/24 16:20:47;;;;;;;4.43;2.08;;;28.10;88.80;;;;;;6280310;22;20012;-88
2022/07/24 16:23:13;;;;;;;5.13;1.90;;;28.20;86.70;;;;;;6280035;22;20015;-88
2022/07/24 16:25:39;;;;;;;3.88;2.20;;;28.20;88.10;;;;;;6280617;22;20008;-89
2022/07/24 16:28:05;;;;;;;2.78;1.95;;;28.40;88.70;;;;;;6279139;22;20007;-88
2022/07/24 16:30:30;;;;;;;3.90;2.17;;;28.40;85.10;;;;;;6254466;22;20023;-91
2022/07/24 16:32:56;;;;;;;2.15;1.70;;;28.30;85.50;;;;;;6277492;22;20030;-87
2022/07/24 16:35:22;;;;;;;5.57;2.13;;;28.30;85.50;;;;;;6251548;22;20050;-82
2022/07/24 16:37:47;;;;;;;4.63;1.98;;;28.20;86.60;;;;;;6226290;22;20090;-84
2022/07/24 16:40:13;;;;;;;4.20;1.85;;;28.30;87.50;;;;;;6251790;22;20047;-86
2022/07/24 16:42:39;;;;;;;3.17;1.85;;;28.20;87.50;;;;;;6251370;22;20086;-86
2022/07/24 16:45:05;;;;;;;4.97;1.80;;;28.00;87.90;;;;;;6278569;22;20441;-87
2022/07/24 16:47:31;;;;;;;2.83;1.75;;;27.90;88.90;;;;;;6226574;22;20433;-86
2022/07/24 16:49:56;;;;;;;4.13;1.90;;;27.80;89.80;;;;;;6251398;22;20091;-85
2022/07/24 16:52:22;;;;;;;3.10;2.00;;;27.80;90.80;;;;;;6225743;22;20050;-87
2022/07/24 16:54:47;;;;;;;4.47;1.95;;;27.90;91.50;;;;;;6251545;22;20012;-86
2022/07/24 16:57:13;;;;;;;4.20;1.63;;;27.90;91.00;;;;;;6251502;22;20035;-87
2022/07/24 16:59:39;;;;;;;3.28;1.90;;;27.90;90.80;;;;;;6226320;22;20341;-89
2022/07/24 17:02:04;;;;;;;4.13;1.98;;;28.00;90.90;;;;;;6250959;22;20015;-88
2022/07/24 17:04:30;;;;;;;4.22;1.77;;;28.00;91.30;;;;;;6278631;22;20012;-85
2022/07/24 17:06:56;;;;;;;3.15;1.60;;;27.90;91.50;;;;;;6250806;22;20444;-87
2022/07/24 17:09:22;;;;;;;2.10;1.55;;;27.90;92.10;;;;;;6278468;22;20011;-86
2022/07/24 17:11:51;;;;;;;5.60;2.20;;;27.90;92.00;;;;;;6250737;22;20011;-88
2022/07/24 17:14:18;;;;;;;2.65;1.80;;;27.90;92.00;;;;;;6251033;22;20051;-89
2022/07/24 17:16:44;;;;;;;2.70;1.88;;;28.00;91.60;;;;;;6250881;22;20047;-85
2022/07/24 17:19:10;;;;;;;3.40;1.95;;;27.90;91.40;;;;;;6278283;22;20012;-87
2022/07/24 17:21:35;;;;;;;4.35;2.03;;;27.90;91.70;;;;;;6250775;22;20007;-87
2022/07/24 17:24:02;;;;;;;3.45;1.58;;;27.90;92.00;;;;;;6226440;22;20016;-89
2022/07/24 17:26:28;;;;;;;2.78;1.83;;;27.90;92.60;;;;;;6252133;22;20010;-93
2022/07/24 17:28:54;;;;;;;4.50;1.85;;;27.90;92.80;;;;;;6251769;22;20043;-89
2022/07/24 17:31:20;;;;;;;4.28;2.05;;;27.90;93.60;;;;;;6227258;22;20012;-89
2022/07/24 17:33:45;;;;;;;5.30;2.53;;;27.90;93.60;;;;;;6252170;22;20022;-92
2022/07/24 17:36:11;;;;;;;4.25;1.90;;;27.80;94.30;;;;;;6280382;22;20035;-89
2022/07/24 17:38:37;;;;;;;3.67;1.70;;;27.60;93.90;;;;;;6252725;22;20024;-90
2022/07/24 17:41:03;;;;;;;3.00;1.77;;;27.60;94.00;;;;;;6251423;22;20016;-89
2022/07/24 17:43:29;;;;;;;2.70;1.98;;;27.50;94.10;;;;;;6277026;22;20018;-84
2022/07/24 17:45:55;;;;;;;3.78;1.52;;;27.50;94.50;;;;;;6277395;22;20007;-85
2022/07/24 17:48:20;;;;;;;2.90;1.80;;;27.50;95.10;;;;;;6250189;22;20146;-86
2022/07/24 17:50:47;;;;;;;2.72;1.98;;;27.60;95.90;;;;;;6250120;22;20015;-85
2022/07/24 17:53:13;;;;;;;4.22;2.03;;;27.60;96.00;;;;;;6277056;22;20011;-86
2022/07/24 17:55:39;;;;;;;3.20;1.75;;;27.60;96.10;;;;;;6277491;22;20437;-86
2022/07/24 17:58:04;;;;;;;3.85;2.33;;;27.60;96.20;;;;;;6249641;22;20065;-86
2022/07/24 18:00:30;;;;;;;3.13;2.10;;;27.50;96.90;;;;;;6250083;22;20008;-84
2022/07/24 18:02:56;;;;;;;3.22;1.90;;;27.60;97.00;;;;;;6250325;22;20016;-85
2022/07/24 18:05:22;;;;;;;3.83;2.13;;;27.60;96.90;;;;;;6251424;22;20015;-85
2022/07/24 18:07:48;;;;;;;4.35;1.90;;;27.60;97.00;;;;;;6251695;22;20429;-83
2022/07/24 18:10:14;;;;;;;4.63;2.03;;;27.60;96.90;;;;;;6226158;22;20008;-85
2022/07/24 18:12:42;;;;;;;3.35;1.85;;;27.60;96.60;;;;;;6251820;22;20039;-85
2022/07/24 18:15:08;;;;;;;3.05;2.08;;;27.60;96.60;;;;;;6280255;22;20057;-85
2022/07/24 18:17:34;;;;;;;2.72;1.85;;;27.60;96.80;;;;;;6252144;22;20008;-86
2022/07/24 18:20:00;;;;;;;5.38;2.55;;;27.60;97.50;;;;;;6251975;22;20439;-86
2022/07/24 18:22:26;;;;;;;4.10;1.80;;;27.60;97.90;;;;;;6251758;22;20047;-85
2022/07/24 18:24:55;;;;;;;4.28;2.00;;;27.50;98.00;;;;;;6252480;22;20062;-85
2022/07/24 18:27:21;;;;;;;3.78;1.80;;;27.50;98.80;;;;;;6252704;22;20007;-87
2022/07/24 18:29:47;;;;;;;3.72;2.40;;;27.40;98.70;;;;;;6251445;22;20461;-86
2022/07/24 18:32:13;;;;;;;5.05;2.05;;;27.40;98.90;;;;;;6278836;22;20054;-85
2022/07/24 18:34:39;;;;;;;4.68;2.10;;;27.30;99.60;;;;;;6251797;22;20058;-85
2022/07/24 18:37:04;;;;;;;2.95;2.15;;;27.10;99.90;;;;;;6251819;22;20073;-86
2022/07/24 18:39:30;;;;;;;3.42;2.10;;;27.10;99.90;;;;;;6278786;22;20011;-84
2022/07/24 18:41:56;;;;;;;4.68;1.98;;;27.00;99.90;;;;;;6251293;22;20342;-86
2022/07/24 18:44:22;;;;;;;3.83;1.90;;;26.90;99.90;;;;;;6251863;22;20023;-85
2022/07/24 18:46:47;;;;;;;3.25;1.98;;;26.90;99.90;;;;;;6251589;22;20015;-85
2022/07/24 18:49:13;;;;;;;4.72;2.00;;;26.80;99.90;;;;;;6251889;22;20111;-86
2022/07/24 18:51:39;;;;;;;4.30;2.25;;;26.70;99.90;;;;;;6252651;22;20014;-86
2022/07/24 18:54:05;;;;;;;5.18;2.35;;;26.70;99.90;;;;;;6251716;22;20015;-82
2022/07/24 18:56:30;;;;;;;3.28;1.80;;;26.60;99.90;;;;;;6278919;22;20065;-86
2022/07/24 18:58:56;;;;;;;3.05;2.10;;;26.60;99.90;;;;;;6279170;22;20499;-86
2022/07/24 19:01:22;;;;;;;2.70;1.95;;;26.50;99.90;;;;;;6251821;22;20375;-86
2022/07/24 19:03:49;;;;;;;5.05;2.15;;;26.50;99.90;;;;;;6250986;22;20015;-86
2022/07/24 19:06:14;;;;;;;3.10;2.30;;;26.40;99.90;;;;;;6226231;22;20084;-86
2022/07/24 19:08:40;;;;;;;4.35;2.20;;;26.30;99.90;;;;;;6250735;22;20057;-85
2022/07/24 19:11:06;;;;;;;2.72;2.00;;;26.20;99.90;;;;;;6251366;22;20434;-85
2022/07/24 19:13:32;;;;;;;3.85;2.63;;;26.20;99.90;;;;;;6226120;22;20433;-87
2022/07/24 19:15:57;;;;;;;3.17;2.33;;;26.10;99.90;;;;;;6250803;22;20069;-86
2022/07/24 19:18:23;;;;;;;3.22;2.40;;;26.10;99.90;;;;;;6250663;22;20018;-85
2022/07/24 19:20:49;;;;;;;4.57;2.50;;;26.00;99.90;;;;;;6251085;22;20022;-85
2022/07/24 19:23:14;;;;;;;2.97;2.30;;;25.90;99.90;;;;;;6225184;22;20043;-86
2022/07/24 19:25:40;;;;;;;3.95;2.38;;;25.90;99.90;;;;;;6250553;22;20022;-86
2022/07/24 19:28:06;;;;;;;3.67;2.40;;;25.80;99.90;;;;;;6250689;22;20015;-84
2022/07/24 19:30:32;;;;;;;4.18;2.15;;;25.80;99.90;;;;;;6250980;22;20012;-85
2022/07/24 19:32:57;;;;;;;4.70;2.20;;;25.70;99.90;;;;;;6250789;22;20094;-85
2022/07/24 19:35:23;;;;;;;4.70;2.30;;;25.60;99.90;;;;;;6250460;22;20026;-87
2022/07/24 19:37:49;;;;;;;3.75;2.20;;;25.50;99.90;;;;;;6278915;22;20011;-85
2022/07/24 19:40:16;;;;;;;3.65;2.20;;;25.50;99.90;;;;;;6251026;22;20019;-83
2022/07/24 19:42:43;;;;;;;3.28;2.40;;;25.40;99.90;;;;;;6250770;22;20099;-86
2022/07/24 19:45:09;;;;;;;4.22;2.72;;;25.30;99.90;;;;;;6250901;22;20011;-86
2022/07/24 19:48:11;;;;;;;;;;;;;;;;;;;;;
2022/07/24 19:50:59;;;;;;;;;;;;;;;;;;;;;
2022/07/24 19:53:28;;;;;;;4.07;2.72;;;25.10;99.90;;;;;;6253559;22;20042;-90
2022/07/24 19:55:54;;;;;;;5.60;2.72;;;25.00;99.90;;;;;;6229634;22;20019;-89
2022/07/24 19:58:20;;;;;;;3.78;2.65;;;24.90;99.90;;;;;;6255456;22;20069;-89
2022/07/24 20:00:46;;;;;;;5.10;2.80;;;24.90;99.90;;;;;;6227720;22;20386;-87
2022/07/24 20:03:11;;;;;;;3.47;2.42;;;24.80;99.90;;;;;;6253352;22;20012;-88
2022/07/24 20:06:40;;;;;;;;;;;;;;;;;;;;;
2022/07/24 20:35:42;;;;;;;;;;;;;;;;;;;;;
2022/07/24 20:38:20;;;;;;;3.22;2.50;;;24.00;99.90;;;;;;6287934;22;20049;-90
2022/07/24 20:44:39;;;;;;;6.18;3.00;;;23.80;99.90;;;;;;6217699;23;20110;-87
2022/07/24 20:47:07;;;;;;;4.53;3.03;;;23.70;99.90;;;;;;6254400;22;20082;-83
2022/07/24 20:49:38;;;;;;;6.43;2.72;;;23.70;99.90;;;;;;6257127;22;20086;-85
2022/07/24 20:52:37;;;;;;;5.07;3.00;;;23.70;99.90;;;;;;6283163;22;20065;-83
2022/07/24 20:55:05;;;;;;;4.63;2.83;;;23.60;99.90;;;;;;6284112;22;20415;-89
2022/07/24 20:57:31;;;;;;;3.83;2.67;;;23.60;99.90;;;;;;6260611;22;20433;-89